createdAt,value
2023-01-03T00:00:15.488Z,23.11
2023-01-03T00:00:46.972Z,23.13
2023-01-03T00:01:18.456Z,23.14
2023-01-03T00:01:49.989Z,23.14
2023-01-03T00:02:21.533Z,23.15
2023-01-03T00:02:53.037Z,23.15
2023-01-03T00:03:24.539Z,23.18
2023-01-03T00:03:56.006Z,23.16
2023-01-03T00:04:27.500Z,23.14
2023-01-03T00:04:59.009Z,23.19
2023-01-03T00:05:30.433Z,23.20
2023-01-03T00:06:01.883Z,23.24
2023-01-03T00:06:33.269Z,23.19
2023-01-03T00:07:04.683Z,23.23
2023-01-03T00:07:36.172Z,23.18
2023-01-03T00:08:07.537Z,23.16
2023-01-03T00:08:38.975Z,23.14
2023-01-03T00:09:10.374Z,23.15
2023-01-03T00:09:41.814Z,23.15
2023-01-03T00:10:13.232Z,23.19
2023-01-03T00:10:44.653Z,23.15
2023-01-03T00:11:16.151Z,23.20
2023-01-03T00:11:47.579Z,23.16
2023-01-03T00:12:18.999Z,23.14
2023-01-03T00:12:50.495Z,23.10
2023-01-03T00:13:21.942Z,23.15
2023-01-03T00:13:53.356Z,23.15
2023-01-03T00:14:24.755Z,23.17
2023-01-03T00:14:56.194Z,23.22
2023-01-03T00:15:27.667Z,23.20
2023-01-03T00:15:59.055Z,23.17
2023-01-03T00:16:30.527Z,23.15
2023-01-03T00:17:01.971Z,23.15
2023-01-03T00:17:33.455Z,23.13
2023-01-03T00:18:04.945Z,23.19
2023-01-03T00:18:36.419Z,23.16
2023-01-03T00:19:07.883Z,23.15
2023-01-03T00:19:39.351Z,23.19
2023-01-03T00:20:10.827Z,23.18
2023-01-03T00:20:42.219Z,23.13
2023-01-03T00:21:13.645Z,23.17
2023-01-03T00:21:45.037Z,23.15
2023-01-03T00:22:16.464Z,23.18
2023-01-03T00:22:47.849Z,23.24
2023-01-03T00:23:19.343Z,23.23
2023-01-03T00:23:50.832Z,23.19
2023-01-03T00:24:22.346Z,23.16
2023-01-03T00:24:53.751Z,23.19
2023-01-03T00:25:25.182Z,23.14
2023-01-03T00:25:56.632Z,23.13
2023-01-03T00:26:28.089Z,23.16
2023-01-03T00:26:59.544Z,23.14
2023-01-03T00:27:31.077Z,23.13
2023-01-03T00:28:02.527Z,23.10
2023-01-03T00:28:33.998Z,23.11
2023-01-03T00:29:05.526Z,23.10
2023-01-03T00:29:36.903Z,23.09
2023-01-03T00:30:08.389Z,23.08
2023-01-03T00:30:39.879Z,23.09
2023-01-03T00:31:11.448Z,23.11
2023-01-03T00:31:42.883Z,23.10
2023-01-03T00:32:14.348Z,23.14
2023-01-03T00:32:45.820Z,23.11
2023-01-03T00:33:17.311Z,23.14
2023-01-03T00:33:48.703Z,23.09
2023-01-03T00:34:20.135Z,23.09
2023-01-03T00:34:51.554Z,23.08
2023-01-03T00:35:22.955Z,23.09
2023-01-03T00:35:54.369Z,23.14
2023-01-03T00:36:25.801Z,23.14
2023-01-03T00:36:57.187Z,23.16
2023-01-03T00:37:28.633Z,23.14
2023-01-03T00:38:00.037Z,23.15
2023-01-03T00:38:31.424Z,23.16
2023-01-03T00:39:03.052Z,23.15
2023-01-03T00:39:34.560Z,23.15
2023-01-03T00:40:05.955Z,23.14
2023-01-03T00:40:37.344Z,23.15
2023-01-03T00:41:39.768Z,23.15
2023-01-03T00:42:10.941Z,23.11
2023-01-03T00:42:42.218Z,23.11
2023-01-03T00:43:13.661Z,23.08
2023-01-03T00:43:45.141Z,23.12
2023-01-03T00:44:16.555Z,23.15
2023-01-03T00:44:48.041Z,23.14
2023-01-03T00:45:20.699Z,23.14
2023-01-03T00:45:53.184Z,23.19
2023-01-03T00:46:24.628Z,23.19
2023-01-03T00:46:56.171Z,23.16
2023-01-03T00:47:27.565Z,23.16
2023-01-03T00:47:58.961Z,23.15
2023-01-03T00:48:30.360Z,23.11
2023-01-03T00:49:01.729Z,23.10
2023-01-03T00:49:33.141Z,23.14
2023-01-03T00:50:04.540Z,23.15
2023-01-03T00:50:35.894Z,23.17
2023-01-03T00:51:07.224Z,23.17
2023-01-03T00:51:38.556Z,23.14
2023-01-03T00:52:09.924Z,23.13
2023-01-03T00:52:41.322Z,23.14
2023-01-03T00:53:12.674Z,23.13
2023-01-03T00:53:44.031Z,23.17
2023-01-03T00:54:15.462Z,23.19
2023-01-03T00:54:46.861Z,23.18
2023-01-03T00:55:18.227Z,23.17
2023-01-03T00:55:49.589Z,23.15
2023-01-03T00:56:21.157Z,23.13
2023-01-03T00:56:52.533Z,23.12
2023-01-03T00:57:23.938Z,23.12
2023-01-03T00:57:55.312Z,23.14
2023-01-03T00:58:26.751Z,23.12
2023-01-03T00:58:58.117Z,23.11
2023-01-03T00:59:29.527Z,23.10
2023-01-03T01:00:03.559Z,23.15
2023-01-03T01:00:34.959Z,23.15
2023-01-03T01:01:06.452Z,23.15
2023-01-03T01:01:45.833Z,23.11
2023-01-03T01:02:18.507Z,23.10
2023-01-03T01:02:50.356Z,23.12
2023-01-03T01:03:21.979Z,23.10
2023-01-03T01:03:53.538Z,23.10
2023-01-03T01:04:24.923Z,23.11
2023-01-03T01:04:56.308Z,23.10
2023-01-03T01:05:27.809Z,23.09
2023-01-03T01:05:59.170Z,23.09
2023-01-03T01:06:30.612Z,23.11
2023-01-03T01:07:02.023Z,23.09
2023-01-03T01:07:33.472Z,23.11
2023-01-03T01:08:04.889Z,23.10
2023-01-03T01:08:36.365Z,23.12
2023-01-03T01:09:07.792Z,23.11
2023-01-03T01:09:39.210Z,23.12
2023-01-03T01:10:10.634Z,23.13
2023-01-03T01:10:42.002Z,23.11
2023-01-03T01:11:13.408Z,23.10
2023-01-03T01:11:44.776Z,23.10
2023-01-03T01:12:16.136Z,23.13
2023-01-03T01:12:47.945Z,23.13
2023-01-03T01:13:19.333Z,23.15
2023-01-03T01:13:51.139Z,23.13
2023-01-03T01:14:22.582Z,23.17
2023-01-03T01:14:54.010Z,23.13
2023-01-03T01:15:25.420Z,23.13
2023-01-03T01:15:56.844Z,23.17
2023-01-03T01:16:28.288Z,23.19
2023-01-03T01:16:59.650Z,23.17
2023-01-03T01:17:31.156Z,23.17
2023-01-03T01:18:02.555Z,23.19
2023-01-03T01:18:33.907Z,23.16
2023-01-03T01:19:05.273Z,23.12
2023-01-03T01:19:36.614Z,23.12
2023-01-03T01:20:08.025Z,23.11
2023-01-03T01:20:39.410Z,23.17
2023-01-03T01:21:10.778Z,23.13
2023-01-03T01:21:42.163Z,23.14
2023-01-03T01:22:13.534Z,23.14
2023-01-03T01:22:44.958Z,23.13
2023-01-03T01:23:16.325Z,23.12
2023-01-03T01:23:47.713Z,23.15
2023-01-03T01:24:19.094Z,23.15
2023-01-03T01:24:50.521Z,23.19
2023-01-03T01:25:22.061Z,23.22
2023-01-03T01:25:53.441Z,23.20
2023-01-03T01:26:24.830Z,23.17
2023-01-03T01:26:56.278Z,23.15
2023-01-03T01:27:27.626Z,23.10
2023-01-03T01:27:59.081Z,23.10
2023-01-03T01:28:30.470Z,23.10
2023-01-03T01:29:01.832Z,23.11
2023-01-03T01:29:33.256Z,23.14
2023-01-03T01:30:04.642Z,23.12
2023-01-03T01:30:36.032Z,23.14
2023-01-03T01:31:07.521Z,23.12
2023-01-03T01:31:38.972Z,23.15
2023-01-03T01:32:10.488Z,23.13
2023-01-03T01:32:41.880Z,23.14
2023-01-03T01:33:13.321Z,23.15
2023-01-03T01:33:44.757Z,23.21
2023-01-03T01:34:16.155Z,23.15
2023-01-03T01:34:47.548Z,23.13
2023-01-03T01:35:18.928Z,23.11
2023-01-03T01:35:50.283Z,23.17
2023-01-03T01:36:21.680Z,23.17
2023-01-03T01:36:53.053Z,23.16
2023-01-03T01:37:24.420Z,23.12
2023-01-03T01:37:55.836Z,23.15
2023-01-03T01:38:27.259Z,23.18
2023-01-03T01:38:58.638Z,23.14
2023-01-03T01:39:30.075Z,23.12
2023-01-03T01:40:01.479Z,23.09
2023-01-03T01:40:32.846Z,23.10
2023-01-03T01:41:04.268Z,23.07
2023-01-03T01:41:35.619Z,23.11
2023-01-03T01:42:07.036Z,23.08
2023-01-03T01:42:38.422Z,23.07
2023-01-03T01:43:09.780Z,23.09
2023-01-03T01:43:41.229Z,23.13
2023-01-03T01:44:12.649Z,23.15
2023-01-03T01:44:44.042Z,23.15
2023-01-03T01:45:15.413Z,23.10
2023-01-03T01:45:46.812Z,23.12
2023-01-03T01:46:18.217Z,23.18
2023-01-03T01:46:49.707Z,23.14
2023-01-03T01:47:21.139Z,23.12
2023-01-03T01:47:52.496Z,23.09
2023-01-03T01:48:23.886Z,23.08
2023-01-03T01:48:55.252Z,23.09
2023-01-03T01:49:26.616Z,23.10
2023-01-03T01:49:57.972Z,23.13
2023-01-03T01:50:29.332Z,23.13
2023-01-03T01:51:00.716Z,23.14
2023-01-03T01:51:32.170Z,23.13
2023-01-03T01:52:03.741Z,23.11
2023-01-03T01:52:35.128Z,23.13
2023-01-03T01:53:06.511Z,23.15
2023-01-03T01:53:37.875Z,23.14
2023-01-03T01:54:09.302Z,23.11
2023-01-03T01:54:40.660Z,23.09
2023-01-03T01:55:12.047Z,23.10
2023-01-03T01:55:43.427Z,23.10
2023-01-03T01:56:14.862Z,23.12
2023-01-03T01:56:46.187Z,23.09
2023-01-03T01:57:17.587Z,23.08
2023-01-03T01:57:49.002Z,23.06
2023-01-03T01:58:20.366Z,23.09
2023-01-03T01:58:51.740Z,23.06
2023-01-03T01:59:23.080Z,23.04
2023-01-03T01:59:54.430Z,23.05
2023-01-03T02:00:25.872Z,23.06
2023-01-03T02:00:57.299Z,23.05
2023-01-03T02:01:28.797Z,23.06
2023-01-03T02:02:00.410Z,23.07
2023-01-03T02:02:32.130Z,23.07
2023-01-03T02:03:03.787Z,23.09
2023-01-03T02:03:35.309Z,23.09
2023-01-03T02:04:06.964Z,23.13
2023-01-03T02:04:38.402Z,23.15
2023-01-03T02:05:09.791Z,23.11
2023-01-03T02:05:41.137Z,23.09
2023-01-03T02:06:12.562Z,23.11
2023-01-03T02:06:43.923Z,23.10
2023-01-03T02:07:15.274Z,23.14
2023-01-03T02:07:46.721Z,23.11
2023-01-03T02:08:18.179Z,23.15
2023-01-03T02:08:49.650Z,23.14
2023-01-03T02:09:21.098Z,23.10
2023-01-03T02:09:52.549Z,23.12
2023-01-03T02:10:23.906Z,23.11
2023-01-03T02:10:55.291Z,23.08
2023-01-03T02:11:26.677Z,23.07
2023-01-03T02:11:58.040Z,23.11
2023-01-03T02:12:29.423Z,23.16
2023-01-03T02:13:00.870Z,23.15
2023-01-03T02:13:32.247Z,23.16
2023-01-03T02:14:03.575Z,23.12
2023-01-03T02:14:35.051Z,23.16
2023-01-03T02:15:06.414Z,23.22
2023-01-03T02:15:37.862Z,23.19
2023-01-03T02:16:09.333Z,23.15
2023-01-03T02:16:40.698Z,23.17
2023-01-03T02:17:12.050Z,23.19
2023-01-03T02:17:43.511Z,23.17
2023-01-03T02:18:14.888Z,23.15
2023-01-03T02:18:46.286Z,23.15
2023-01-03T02:19:17.703Z,23.14
2023-01-03T02:19:49.053Z,23.15
2023-01-03T02:20:20.481Z,23.19
2023-01-03T02:20:51.848Z,23.13
2023-01-03T02:21:23.294Z,23.06
2023-01-03T02:21:54.659Z,23.11
2023-01-03T02:22:26.027Z,23.09
2023-01-03T02:22:57.426Z,23.08
2023-01-03T02:23:28.824Z,23.07
2023-01-03T02:24:00.190Z,23.09
2023-01-03T02:24:31.611Z,23.06
2023-01-03T02:25:03.040Z,23.05
2023-01-03T02:25:34.441Z,23.04
2023-01-03T02:26:05.837Z,23.11
2023-01-03T02:26:37.209Z,23.16
2023-01-03T02:27:08.611Z,23.10
2023-01-03T02:27:40.032Z,23.08
2023-01-03T02:28:11.495Z,23.05
2023-01-03T02:28:42.928Z,23.09
2023-01-03T02:29:14.282Z,23.11
2023-01-03T02:29:45.666Z,23.15
2023-01-03T02:30:17.032Z,23.08
2023-01-03T02:30:48.444Z,23.10
2023-01-03T02:31:19.857Z,23.11
2023-01-03T02:31:51.235Z,23.15
2023-01-03T02:32:22.592Z,23.09
2023-01-03T02:32:54.073Z,23.11
2023-01-03T02:33:25.578Z,23.14
2023-01-03T02:33:56.966Z,23.11
2023-01-03T02:34:28.370Z,23.08
2023-01-03T02:34:59.811Z,23.15
2023-01-03T02:35:31.173Z,23.17
2023-01-03T02:36:02.519Z,23.15
2023-01-03T02:36:33.951Z,23.10
2023-01-03T02:37:05.315Z,23.13
2023-01-03T02:37:36.686Z,23.14
2023-01-03T02:38:08.081Z,23.14
2023-01-03T02:38:39.497Z,23.10
2023-01-03T02:39:10.863Z,23.09
2023-01-03T02:39:42.307Z,23.08
2023-01-03T02:40:13.747Z,23.04
2023-01-03T02:40:47.447Z,23.06
2023-01-03T02:41:18.948Z,23.10
2023-01-03T02:41:50.352Z,23.12
2023-01-03T02:42:21.739Z,23.14
2023-01-03T02:42:53.084Z,23.15
2023-01-03T02:43:24.566Z,23.16
2023-01-03T02:43:55.929Z,23.10
2023-01-03T02:44:27.315Z,23.05
2023-01-03T02:44:58.728Z,23.05
2023-01-03T02:45:30.275Z,23.11
2023-01-03T02:46:01.736Z,23.11
2023-01-03T02:46:33.295Z,23.04
2023-01-03T02:47:04.807Z,23.02
2023-01-03T02:47:36.269Z,23.01
2023-01-03T02:48:07.611Z,23.07
2023-01-03T02:48:39.064Z,23.13
2023-01-03T02:49:10.442Z,23.07
2023-01-03T02:49:41.846Z,23.05
2023-01-03T02:50:13.277Z,23.04
2023-01-03T02:50:44.660Z,23.03
2023-01-03T02:51:16.063Z,23.03
2023-01-03T02:51:47.427Z,23.03
2023-01-03T02:52:18.799Z,23.09
2023-01-03T02:52:50.181Z,23.11
2023-01-03T02:53:21.548Z,23.05
2023-01-03T02:53:52.975Z,23.02
2023-01-03T02:54:24.344Z,23.01
2023-01-03T02:54:55.681Z,23.01
2023-01-03T02:55:27.046Z,23.08
2023-01-03T02:55:58.485Z,23.06
2023-01-03T02:56:29.852Z,23.02
2023-01-03T02:57:01.378Z,23.02
2023-01-03T02:57:32.706Z,23.00
2023-01-03T02:58:04.029Z,23.04
2023-01-03T02:58:35.404Z,23.04
2023-01-03T02:59:06.823Z,23.02
2023-01-03T02:59:38.162Z,23.01
2023-01-03T03:00:09.582Z,23.08
2023-01-03T03:00:40.931Z,23.13
2023-01-03T03:01:12.520Z,23.08
2023-01-03T03:01:43.961Z,23.04
2023-01-03T03:02:15.587Z,23.03
2023-01-03T03:02:47.046Z,23.06
2023-01-03T03:03:18.644Z,23.03
2023-01-03T03:03:50.145Z,23.04
2023-01-03T03:04:21.691Z,23.01
2023-01-03T03:04:53.058Z,22.99
2023-01-03T03:05:24.436Z,23.01
2023-01-03T03:05:55.865Z,23.03
2023-01-03T03:06:27.269Z,23.05
2023-01-03T03:06:58.692Z,23.08
2023-01-03T03:07:30.075Z,23.11
2023-01-03T03:08:01.497Z,23.07
2023-01-03T03:08:32.910Z,23.07
2023-01-03T03:09:04.327Z,23.07
2023-01-03T03:09:35.793Z,23.10
2023-01-03T03:10:07.171Z,23.11
2023-01-03T03:10:38.595Z,23.16
2023-01-03T03:11:10.042Z,23.15
2023-01-03T03:11:41.454Z,23.09
2023-01-03T03:12:12.858Z,23.04
2023-01-03T03:12:44.249Z,23.04
2023-01-03T03:13:15.676Z,23.02
2023-01-03T03:13:47.074Z,23.01
2023-01-03T03:14:18.476Z,23.03
2023-01-03T03:14:49.853Z,23.04
2023-01-03T03:15:21.202Z,23.05
2023-01-03T03:15:52.595Z,23.05
2023-01-03T03:16:24.060Z,23.04
2023-01-03T03:16:55.496Z,23.03
2023-01-03T03:17:26.907Z,23.04
2023-01-03T03:17:58.294Z,23.04
2023-01-03T03:18:29.755Z,23.04
2023-01-03T03:19:01.112Z,23.05
2023-01-03T03:19:32.508Z,23.02
2023-01-03T03:20:06.786Z,23.07
2023-01-03T03:20:38.446Z,23.06
2023-01-03T03:21:09.819Z,23.11
2023-01-03T03:21:41.152Z,23.04
2023-01-03T03:22:12.497Z,23.02
2023-01-03T03:22:43.892Z,23.06
2023-01-03T03:23:15.223Z,23.06
2023-01-03T03:23:46.696Z,23.08
2023-01-03T03:24:18.028Z,23.16
2023-01-03T03:24:49.429Z,23.09
2023-01-03T03:25:20.780Z,23.04
2023-01-03T03:25:52.182Z,23.04
2023-01-03T03:26:23.574Z,23.11
2023-01-03T03:26:55.127Z,23.15
2023-01-03T03:27:26.485Z,23.13
2023-01-03T03:27:57.887Z,23.16
2023-01-03T03:28:29.278Z,23.21
2023-01-03T03:29:00.635Z,23.14
2023-01-03T03:29:32.062Z,23.19
2023-01-03T03:30:03.736Z,23.12
2023-01-03T03:30:35.119Z,23.05
2023-01-03T03:31:06.619Z,23.05
2023-01-03T03:31:38.068Z,23.06
2023-01-03T03:32:09.444Z,23.02
2023-01-03T03:32:40.864Z,22.99
2023-01-03T03:33:12.265Z,23.04
2023-01-03T03:33:43.686Z,23.03
2023-01-03T03:34:15.043Z,23.08
2023-01-03T03:34:46.452Z,23.05
2023-01-03T03:35:17.837Z,23.04
2023-01-03T03:35:49.226Z,23.02
2023-01-03T03:36:20.645Z,23.00
2023-01-03T03:36:52.029Z,22.99
2023-01-03T03:37:23.429Z,22.97
2023-01-03T03:37:54.808Z,22.98
2023-01-03T03:38:26.196Z,22.99
2023-01-03T03:38:57.681Z,23.04
2023-01-03T03:39:29.084Z,23.08
2023-01-03T03:40:00.616Z,23.05
2023-01-03T03:40:32.060Z,23.00
2023-01-03T03:41:03.462Z,23.00
2023-01-03T03:41:34.897Z,22.99
2023-01-03T03:42:06.343Z,22.99
2023-01-03T03:42:37.662Z,22.99
2023-01-03T03:43:09.038Z,22.98
2023-01-03T03:43:40.400Z,22.99
2023-01-03T03:44:11.847Z,22.99
2023-01-03T03:44:43.235Z,22.99
2023-01-03T03:45:14.619Z,23.00
2023-01-03T03:45:46.030Z,23.01
2023-01-03T03:46:17.411Z,23.04
2023-01-03T03:46:54.522Z,23.07
2023-01-03T03:47:26.436Z,23.04
2023-01-03T03:47:57.855Z,23.03
2023-01-03T03:48:29.266Z,23.05
2023-01-03T03:49:00.663Z,23.06
2023-01-03T03:49:32.126Z,23.04
2023-01-03T03:50:03.500Z,23.03
2023-01-03T03:50:34.923Z,23.05
2023-01-03T03:51:06.340Z,23.11
2023-01-03T03:51:37.778Z,23.11
2023-01-03T03:52:09.148Z,23.06
2023-01-03T03:52:40.577Z,23.03
2023-01-03T03:53:12.034Z,23.02
2023-01-03T03:53:43.489Z,23.02
2023-01-03T03:54:14.883Z,23.00
2023-01-03T03:54:46.317Z,23.04
2023-01-03T03:55:17.703Z,23.01
2023-01-03T03:55:49.136Z,23.01
2023-01-03T03:56:20.581Z,23.01
2023-01-03T03:56:51.967Z,23.04
2023-01-03T03:57:23.334Z,23.00
2023-01-03T03:57:54.758Z,22.98
2023-01-03T03:58:26.145Z,23.00
2023-01-03T03:58:57.545Z,23.02
2023-01-03T03:59:29.013Z,23.10
2023-01-03T04:00:00.632Z,23.09
2023-01-03T04:00:34.702Z,23.03
2023-01-03T04:01:06.092Z,23.03
2023-01-03T04:01:37.602Z,23.02
2023-01-03T04:02:09.197Z,23.04
2023-01-03T04:02:40.748Z,23.04
2023-01-03T04:03:12.319Z,23.06
2023-01-03T04:03:43.827Z,23.06
2023-01-03T04:04:15.233Z,23.05
2023-01-03T04:04:46.673Z,23.07
2023-01-03T04:05:18.157Z,23.08
2023-01-03T04:05:49.561Z,23.06
2023-01-03T04:06:20.906Z,23.01
2023-01-03T04:06:52.297Z,22.98
2023-01-03T04:07:23.739Z,22.97
2023-01-03T04:07:55.164Z,23.04
2023-01-03T04:08:26.547Z,23.09
2023-01-03T04:08:57.958Z,23.04
2023-01-03T04:09:29.352Z,23.03
2023-01-03T04:10:00.717Z,23.06
2023-01-03T04:10:37.459Z,23.05
2023-01-03T04:11:09.479Z,23.06
2023-01-03T04:11:40.867Z,23.05
2023-01-03T04:12:12.218Z,23.05
2023-01-03T04:12:43.635Z,23.03
2023-01-03T04:13:15.022Z,23.05
2023-01-03T04:13:46.460Z,23.02
2023-01-03T04:14:17.859Z,22.99
2023-01-03T04:14:49.261Z,23.00
2023-01-03T04:15:20.722Z,23.03
2023-01-03T04:15:52.259Z,23.12
2023-01-03T04:16:23.843Z,23.10
2023-01-03T04:16:55.311Z,23.03
2023-01-03T04:17:26.727Z,23.06
2023-01-03T04:17:58.125Z,23.12
2023-01-03T04:18:29.507Z,23.10
2023-01-03T04:19:00.943Z,23.12
2023-01-03T04:19:32.327Z,23.12
2023-01-03T04:20:03.661Z,23.06
2023-01-03T04:20:35.049Z,23.04
2023-01-03T04:21:06.529Z,23.04
2023-01-03T04:21:37.959Z,23.00
2023-01-03T04:22:09.293Z,23.00
2023-01-03T04:22:40.686Z,23.00
2023-01-03T04:23:12.171Z,23.02
2023-01-03T04:23:43.502Z,23.02
2023-01-03T04:24:14.880Z,23.06
2023-01-03T04:24:46.263Z,23.08
2023-01-03T04:25:17.629Z,23.08
2023-01-03T04:25:49.009Z,23.10
2023-01-03T04:26:20.415Z,23.07
2023-01-03T04:26:51.756Z,23.06
2023-01-03T04:27:23.123Z,23.12
2023-01-03T04:27:54.576Z,23.05
2023-01-03T04:28:26.002Z,23.04
2023-01-03T04:28:57.440Z,23.06
2023-01-03T04:29:30.744Z,23.04
2023-01-03T04:30:04.224Z,23.06
2023-01-03T04:30:35.612Z,23.05
2023-01-03T04:31:06.965Z,23.00
2023-01-03T04:31:38.557Z,23.05
2023-01-03T04:32:10.070Z,23.08
2023-01-03T04:32:41.642Z,23.05
2023-01-03T04:33:13.050Z,23.02
2023-01-03T04:33:44.489Z,23.00
2023-01-03T04:34:15.898Z,23.00
2023-01-03T04:34:47.299Z,23.03
2023-01-03T04:35:18.660Z,23.05
2023-01-03T04:35:49.962Z,23.08
2023-01-03T04:36:21.329Z,23.06
2023-01-03T04:36:52.744Z,23.11
2023-01-03T04:37:24.192Z,23.05
2023-01-03T04:37:55.610Z,23.02
2023-01-03T04:38:27.019Z,23.01
2023-01-03T04:38:58.394Z,22.99
2023-01-03T04:39:29.767Z,22.98
2023-01-03T04:40:01.187Z,22.96
2023-01-03T04:40:32.521Z,23.03
2023-01-03T04:41:03.892Z,23.03
2023-01-03T04:41:35.317Z,23.01
2023-01-03T04:42:06.735Z,22.99
2023-01-03T04:42:38.156Z,23.00
2023-01-03T04:43:09.553Z,23.01
2023-01-03T04:43:40.931Z,22.98
2023-01-03T04:44:12.288Z,22.97
2023-01-03T04:44:43.657Z,22.98
2023-01-03T04:45:15.052Z,22.99
2023-01-03T04:45:46.492Z,22.97
2023-01-03T04:46:18.040Z,23.02
2023-01-03T04:46:52.956Z,23.03
2023-01-03T04:47:24.749Z,23.01
2023-01-03T04:47:56.113Z,23.02
2023-01-03T04:48:27.514Z,23.01
2023-01-03T04:48:58.969Z,23.01
2023-01-03T04:49:30.334Z,23.01
2023-01-03T04:50:01.769Z,23.00
2023-01-03T04:50:33.101Z,23.02
2023-01-03T04:51:04.435Z,23.04
2023-01-03T04:51:35.841Z,23.04
2023-01-03T04:52:07.222Z,23.09
2023-01-03T04:52:38.639Z,23.06
2023-01-03T04:53:10.017Z,23.05
2023-01-03T04:53:41.367Z,23.06
2023-01-03T04:54:12.862Z,23.06
2023-01-03T04:54:44.196Z,23.05
2023-01-03T04:55:15.572Z,23.05
2023-01-03T04:55:47.080Z,23.03
2023-01-03T04:56:18.465Z,23.00
2023-01-03T04:56:49.873Z,23.02
2023-01-03T04:57:21.240Z,23.06
2023-01-03T04:57:52.671Z,23.06
2023-01-03T04:58:24.088Z,23.08
2023-01-03T04:58:55.492Z,23.05
2023-01-03T04:59:26.907Z,23.04
2023-01-03T04:59:58.285Z,23.04
2023-01-03T05:00:29.826Z,23.01
2023-01-03T05:01:01.273Z,22.99
2023-01-03T05:01:32.884Z,23.02
2023-01-03T05:02:04.426Z,23.04
2023-01-03T05:02:36.066Z,23.11
2023-01-03T05:03:07.472Z,23.06
2023-01-03T05:03:38.840Z,23.07
2023-01-03T05:04:10.245Z,23.05
2023-01-03T05:04:41.811Z,23.10
2023-01-03T05:05:13.329Z,23.03
2023-01-03T05:05:44.703Z,23.01
2023-01-03T05:06:16.053Z,23.02
2023-01-03T05:06:47.487Z,23.00
2023-01-03T05:07:18.892Z,22.97
2023-01-03T05:07:50.266Z,22.95
2023-01-03T05:08:21.623Z,22.97
2023-01-03T05:08:52.993Z,23.00
2023-01-03T05:09:24.512Z,23.00
2023-01-03T05:09:55.939Z,23.03
2023-01-03T05:10:27.291Z,23.07
2023-01-03T05:10:58.696Z,23.08
2023-01-03T05:11:30.056Z,23.01
2023-01-03T05:12:01.417Z,23.01
2023-01-03T05:12:32.850Z,23.03
2023-01-03T05:13:04.213Z,23.05
2023-01-03T05:13:35.610Z,23.05
2023-01-03T05:14:13.959Z,23.04
2023-01-03T05:14:45.761Z,22.99
2023-01-03T05:15:17.220Z,23.00
2023-01-03T05:15:48.568Z,22.99
2023-01-03T05:16:20.055Z,23.02
2023-01-03T05:16:51.533Z,23.11
2023-01-03T05:17:23.033Z,23.08
2023-01-03T05:17:54.382Z,23.08
2023-01-03T05:18:25.779Z,23.04
2023-01-03T05:18:57.253Z,22.99
2023-01-03T05:19:28.635Z,22.98
2023-01-03T05:20:00.012Z,22.99
2023-01-03T05:20:31.461Z,22.98
2023-01-03T05:21:02.848Z,22.97
2023-01-03T05:21:34.214Z,22.98
2023-01-03T05:22:05.618Z,22.97
2023-01-03T05:22:36.996Z,22.99
2023-01-03T05:23:08.446Z,23.01
2023-01-03T05:23:39.878Z,22.99
2023-01-03T05:24:11.232Z,22.98
2023-01-03T05:24:42.620Z,22.98
2023-01-03T05:25:13.969Z,23.00
2023-01-03T05:25:45.444Z,22.97
2023-01-03T05:26:16.827Z,22.98
2023-01-03T05:26:48.194Z,22.98
2023-01-03T05:27:19.617Z,23.02
2023-01-03T05:27:51.054Z,23.00
2023-01-03T05:28:22.447Z,23.01
2023-01-03T05:28:53.858Z,23.03
2023-01-03T05:29:25.220Z,23.02
2023-01-03T05:29:56.573Z,23.03
2023-01-03T05:30:27.991Z,23.02
2023-01-03T05:30:59.399Z,23.01
2023-01-03T05:31:30.799Z,23.02
2023-01-03T05:32:02.265Z,23.00
2023-01-03T05:32:33.709Z,22.99
2023-01-03T05:33:05.086Z,23.00
2023-01-03T05:33:36.479Z,22.99
2023-01-03T05:34:07.878Z,22.97
2023-01-03T05:34:39.265Z,23.00
2023-01-03T05:35:10.681Z,22.99
2023-01-03T05:35:42.098Z,23.01
2023-01-03T05:36:13.516Z,23.01
2023-01-03T05:36:44.961Z,23.05
2023-01-03T05:37:16.398Z,23.02
2023-01-03T05:37:47.764Z,23.02
2023-01-03T05:38:19.283Z,22.98
2023-01-03T05:38:50.681Z,23.04
2023-01-03T05:39:22.070Z,23.06
2023-01-03T05:39:53.447Z,23.03
2023-01-03T05:40:24.830Z,23.02
2023-01-03T05:40:56.207Z,23.04
2023-01-03T05:41:27.590Z,23.01
2023-01-03T05:41:58.973Z,22.99
2023-01-03T05:42:30.343Z,23.00
2023-01-03T05:43:01.792Z,23.08
2023-01-03T05:43:33.135Z,23.04
2023-01-03T05:44:04.494Z,23.01
2023-01-03T05:44:35.820Z,23.00
2023-01-03T05:45:07.198Z,23.02
2023-01-03T05:45:38.636Z,23.01
2023-01-03T05:46:10.147Z,23.00
2023-01-03T05:46:41.658Z,22.97
2023-01-03T05:47:13.052Z,22.96
2023-01-03T05:47:44.441Z,22.96
2023-01-03T05:48:15.834Z,23.01
2023-01-03T05:48:47.196Z,22.99
2023-01-03T05:49:18.575Z,22.97
2023-01-03T05:49:50.029Z,22.97
2023-01-03T05:50:21.384Z,22.98
2023-01-03T05:50:52.763Z,23.00
2023-01-03T05:51:24.149Z,22.99
2023-01-03T05:51:55.553Z,22.98
2023-01-03T05:52:26.970Z,22.99
2023-01-03T05:52:58.294Z,23.02
2023-01-03T05:53:29.695Z,22.99
2023-01-03T05:54:01.132Z,22.98
2023-01-03T05:54:32.552Z,22.98
2023-01-03T05:55:03.951Z,22.98
2023-01-03T05:55:35.380Z,22.98
2023-01-03T05:56:06.754Z,22.99
2023-01-03T05:56:38.151Z,22.97
2023-01-03T05:57:09.556Z,22.98
2023-01-03T05:57:40.961Z,22.97
2023-01-03T05:58:12.345Z,22.98
2023-01-03T05:58:43.801Z,22.98
2023-01-03T05:59:15.163Z,22.97
2023-01-03T05:59:46.544Z,23.00
2023-01-03T06:00:18.035Z,23.02
2023-01-03T06:00:49.456Z,22.98
2023-01-03T06:01:20.872Z,22.98
2023-01-03T06:01:52.428Z,22.97
2023-01-03T06:02:24.026Z,23.01
2023-01-03T06:02:55.470Z,23.02
2023-01-03T06:03:26.883Z,23.00
2023-01-03T06:03:58.266Z,23.02
2023-01-03T06:04:29.667Z,23.03
2023-01-03T06:05:01.097Z,23.01
2023-01-03T06:05:32.656Z,22.99
2023-01-03T06:06:04.086Z,22.98
2023-01-03T06:06:35.468Z,22.98
2023-01-03T06:07:06.885Z,23.00
2023-01-03T06:07:38.265Z,22.99
2023-01-03T06:08:09.675Z,22.97
2023-01-03T06:08:41.092Z,22.98
2023-01-03T06:09:12.444Z,22.96
2023-01-03T06:09:43.843Z,22.96
2023-01-03T06:10:15.296Z,22.96
2023-01-03T06:10:46.670Z,22.98
2023-01-03T06:11:18.355Z,22.98
2023-01-03T06:11:49.813Z,22.97
2023-01-03T06:12:21.219Z,22.96
2023-01-03T06:12:52.621Z,22.96
2023-01-03T06:13:24.033Z,22.94
2023-01-03T06:13:55.525Z,22.95
2023-01-03T06:14:26.975Z,22.99
2023-01-03T06:14:58.325Z,22.99
2023-01-03T06:15:29.898Z,22.98
2023-01-03T06:16:01.319Z,22.98
2023-01-03T06:16:32.817Z,22.97
2023-01-03T06:17:04.365Z,23.00
2023-01-03T06:17:35.787Z,23.00
2023-01-03T06:18:07.151Z,22.98
2023-01-03T06:18:38.571Z,22.96
2023-01-03T06:19:09.975Z,22.97
2023-01-03T06:19:41.356Z,22.95
2023-01-03T06:20:12.778Z,22.94
2023-01-03T06:20:44.177Z,22.95
2023-01-03T06:21:15.599Z,22.97
2023-01-03T06:21:46.967Z,22.96
2023-01-03T06:22:18.380Z,22.98
2023-01-03T06:22:49.792Z,22.96
2023-01-03T06:23:21.196Z,23.01
2023-01-03T06:23:52.523Z,23.01
2023-01-03T06:24:24.003Z,23.00
2023-01-03T06:24:55.373Z,22.98
2023-01-03T06:25:26.743Z,22.99
2023-01-03T06:25:58.156Z,23.06
2023-01-03T06:26:29.545Z,23.06
2023-01-03T06:27:00.924Z,23.06
2023-01-03T06:27:32.310Z,23.03
2023-01-03T06:28:03.678Z,22.99
2023-01-03T06:28:35.047Z,22.98
2023-01-03T06:29:06.485Z,22.98
2023-01-03T06:29:37.839Z,22.98
2023-01-03T06:30:09.256Z,22.98
2023-01-03T06:30:40.703Z,22.98
2023-01-03T06:31:12.226Z,23.00
2023-01-03T06:31:43.647Z,22.97
2023-01-03T06:32:15.022Z,22.97
2023-01-03T06:32:46.416Z,22.98
2023-01-03T06:33:17.847Z,22.99
2023-01-03T06:33:49.243Z,22.99
2023-01-03T06:34:20.696Z,22.97
2023-01-03T06:34:52.063Z,22.94
2023-01-03T06:35:23.415Z,22.95
2023-01-03T06:35:54.750Z,22.95
2023-01-03T06:36:26.164Z,22.95
2023-01-03T06:36:57.653Z,23.00
2023-01-03T06:37:29.044Z,22.97
2023-01-03T06:38:00.468Z,22.96
2023-01-03T06:38:31.942Z,22.95
2023-01-03T06:39:03.339Z,22.99
2023-01-03T06:39:34.830Z,22.96
2023-01-03T06:40:06.176Z,22.95
2023-01-03T06:40:43.940Z,22.95
2023-01-03T06:41:17.057Z,22.93
2023-01-03T06:42:23.043Z,22.97
2023-01-03T06:42:54.226Z,22.95
2023-01-03T06:43:25.403Z,22.99
2023-01-03T06:43:56.643Z,22.99
2023-01-03T06:44:28.008Z,22.97
2023-01-03T06:44:59.479Z,22.97
2023-01-03T06:45:31.060Z,23.01
2023-01-03T06:46:02.661Z,23.00
2023-01-03T06:46:34.322Z,23.05